Time;durP1;ratioP1;P1;durP2;ratioP2;P2;SDS_P1;SDS_P2;PMS_P1;PMS_P2;Temp;Humidity;BMP_temperature;BMP_pressure;BME280_temperature;BME280_humidity;BME280_pressure;Samples;Min_cycle;Max_cycle;Signal;HPM_P1;HPM_P2
2022/02/09 00:00:04;;;;;;;;;;;21.80;36.70;;;;;;680464;29;1508;-88
2022/02/09 00:00:27;;;;;;;;;;;21.80;36.70;;;;;;680622;29;1319;-89
2022/02/09 00:01:10;;;;;;;;;;;21.80;36.90;;;;;;680781;29;855;-88
2022/02/09 00:01:46;;;;;;;;;;;21.80;36.80;;;;;;682308;29;1142;-89
2022/02/09 00:02:38;;;;;;;;;;;21.70;36.90;;;;;;685960;28;683;-87
2022/02/09 00:03:24;;;;;;;;;;;21.80;36.90;;;;;;686102;28;885;-88
2022/02/09 00:04:01;;;;;;;;;;;21.80;37.40;;;;;;686173;28;930;-88
2022/02/09 00:06:08;;;;;;;;;;;21.80;36.80;;;;;;688761;28;1057;-87
2022/02/09 00:06:43;;;;;;;;;;;21.70;37.00;;;;;;688719;28;881;-90
2022/02/09 00:07:15;;;;;;;;;;;21.70;36.80;;;;;;688701;28;780;-90
2022/02/09 00:08:02;;;;;;;;;;;21.70;36.90;;;;;;688651;28;1371;-88
2022/02/09 00:08:23;;;;;;;;;;;21.70;37.40;;;;;;688676;28;1017;-88
2022/02/09 00:08:44;;;;;;;;;;;21.70;36.80;;;;;;686015;28;1487;-88
2022/02/09 00:09:05;;;;;;;;;;;21.70;36.80;;;;;;686045;28;1292;-89
2022/02/09 00:09:25;;;;;;;;;;;21.70;36.80;;;;;;686120;28;791;-88
2022/02/09 00:09:48;;;;;;;;;;;21.70;36.80;;;;;;686080;28;854;-85
2022/02/09 00:10:08;;;;;;;;;;;21.70;36.80;;;;;;686151;28;823;-87
2022/02/09 00:10:31;;;;;;;;;;;21.70;36.90;;;;;;685980;28;701;-85
2022/02/09 00:10:58;;;;;;;;;;;21.70;36.80;;;;;;686971;28;945;-83
2022/02/09 00:11:26;;;;;;;;;;;21.70;36.80;;;;;;688851;28;818;-89
2022/02/09 00:11:53;;;;;;;;;;;21.80;36.80;;;;;;688684;28;882;-87
2022/02/09 00:12:22;;;;;;;;;;;21.70;37.00;;;;;;688930;28;834;-85
2022/02/09 00:12:50;;;;;;;;;;;21.70;36.80;;;;;;688896;28;869;-86
2022/02/09 00:13:55;;;;;;;;;;;21.70;36.80;;;;;;688554;28;807;-88
2022/02/09 00:14:35;;;;;;;;;;;21.70;36.80;;;;;;688456;28;854;-84
2022/02/09 00:15:53;;;;;;;;;;;21.70;36.80;;;;;;691240;28;1345;-87
2022/02/09 00:17:14;;;;;;;;;;;21.70;37.10;;;;;;690575;28;1207;-86
2022/02/09 00:17:49;;;;;;;;;;;21.70;37.00;;;;;;691159;28;854;-88
2022/02/09 00:18:59;;;;;;;;;;;21.70;36.80;;;;;;691110;28;894;-84
2022/02/09 00:19:04;;;;;;;;;;;21.70;36.90;;;;;;685706;28;1898;-85
2022/02/09 00:19:35;;;;;;;;;;;21.70;36.80;;;;;;690952;28;949;-82
2022/02/09 00:21:48;;;;;;;;;;;21.70;37.00;;;;;;691126;28;606;-85
2022/02/09 00:38:48;;;;;;;;;;;21.90;36.80;;;;;;678216;29;898;-83
2022/02/09 00:39:37;;;;;;;;;;;22.00;37.90;;;;;;675574;29;1980;-85
2022/02/09 00:40:16;;;;;;;;;;;22.00;36.80;;;;;;675554;29;1323;-86
2022/02/09 00:42:31;;;;;;;;;;;22.00;36.80;;;;;;678287;29;1146;-85
2022/02/09 00:44:00;;;;;;;;;;;22.00;36.80;;;;;;678376;29;864;-87
2022/02/09 00:59:08;;;;;;;;;;;21.80;36.80;;;;;;678439;29;677;-85
2022/02/09 01:11:31;;;;;;;;;;;21.70;37.50;;;;;;668174;29;631;-88
2022/02/09 01:39:46;;;;;;;;;;;21.60;37.40;;;;;;678241;29;1927;-86
2022/02/09 01:39:49;;;;;;;;;;;21.60;37.30;;;;;;678042;29;1492;-86
2022/02/09 01:42:05;;;;;;;;;;;21.60;37.40;;;;;;678199;29;590;-89
2022/02/09 01:51:13;;;;;;;;;;;21.60;37.50;;;;;;683436;29;645;-87
2022/02/09 01:55:29;;;;;;;;;;;21.60;37.50;;;;;;683367;29;649;-80
2022/02/09 01:55:51;;;;;;;;;;;21.60;37.50;;;;;;683354;29;890;-87
2022/02/09 01:56:11;;;;;;;;;;;21.60;37.50;;;;;;680752;29;1211;-87
2022/02/09 01:56:32;;;;;;;;;;;21.50;37.40;;;;;;680744;29;918;-87
2022/02/09 01:56:53;;;;;;;;;;;21.60;37.50;;;;;;680685;29;950;-83
2022/02/09 01:57:15;;;;;;;;;;;21.60;37.40;;;;;;680878;29;772;-87
2022/02/09 01:57:36;;;;;;;;;;;21.50;37.50;;;;;;678013;29;1300;-91
2022/02/09 01:57:57;;;;;;;;;;;21.60;37.40;;;;;;678699;29;870;-87
2022/02/09 01:58:19;;;;;;;;;;;21.50;37.50;;;;;;680577;29;1454;-88
2022/02/09 01:58:39;;;;;;;;;;;21.50;37.50;;;;;;680827;29;1103;-87
2022/02/09 01:59:00;;;;;;;;;;;21.50;37.70;;;;;;680759;29;1902;-90
2022/02/09 01:59:21;;;;;;;;;;;21.50;37.80;;;;;;681291;29;800;-88
2022/02/09 01:59:43;;;;;;;;;;;21.60;37.50;;;;;;683606;29;851;-89
2022/02/09 02:00:05;;;;;;;;;;;21.50;37.50;;;;;;683406;29;823;-82
2022/02/09 02:00:26;;;;;;;;;;;21.60;37.50;;;;;;683371;29;926;-89
2022/02/09 02:00:46;;;;;;;;;;;21.50;37.50;;;;;;683463;29;887;-80
2022/02/09 02:01:07;;;;;;;;;;;21.50;37.70;;;;;;683486;29;969;-89
2022/02/09 02:01:28;;;;;;;;;;;21.50;37.70;;;;;;680668;29;1302;-88
2022/02/09 02:01:48;;;;;;;;;;;21.50;37.60;;;;;;680652;29;1327;-89
2022/02/09 02:02:09;;;;;;;;;;;21.50;37.60;;;;;;680725;29;1339;-86
2022/02/09 02:02:30;;;;;;;;;;;21.50;37.50;;;;;;678040;29;1362;-86
2022/02/09 02:02:50;;;;;;;;;;;21.50;37.50;;;;;;678190;29;807;-87
2022/02/09 02:03:11;;;;;;;;;;;21.50;37.60;;;;;;678584;29;851;-86
2022/02/09 02:03:31;;;;;;;;;;;21.50;37.90;;;;;;680727;29;867;-90
2022/02/09 02:03:52;;;;;;;;;;;21.50;37.60;;;;;;680629;29;1320;-88
2022/02/09 02:04:13;;;;;;;;;;;21.50;37.50;;;;;;681138;29;827;-89
2022/02/09 02:04:34;;;;;;;;;;;21.50;37.70;;;;;;680722;29;1222;-88
2022/02/09 02:04:55;;;;;;;;;;;21.60;37.50;;;;;;680778;29;852;-89
2022/02/09 02:05:16;;;;;;;;;;;21.50;37.80;;;;;;680694;29;1323;-87
2022/02/09 02:05:36;;;;;;;;;;;21.50;37.80;;;;;;680734;29;1472;-81
2022/02/09 02:05:57;;;;;;;;;;;21.50;37.50;;;;;;680875;29;1180;-86
2022/02/09 02:06:19;;;;;;;;;;;21.50;37.60;;;;;;683169;29;883;-88
2022/02/09 02:06:42;;;;;;;;;;;21.50;37.60;;;;;;685293;28;1441;-89
2022/02/09 02:07:09;;;;;;;;;;;21.50;37.50;;;;;;683360;29;1381;-90
2022/02/09 02:07:56;;;;;;;;;;;21.50;37.60;;;;;;683400;29;918;-88
2022/02/09 02:08:17;;;;;;;;;;;21.50;37.50;;;;;;683353;29;796;-80
2022/02/09 02:08:37;;;;;;;;;;;21.50;37.50;;;;;;683461;29;867;-90
2022/02/09 02:08:58;;;;;;;;;;;21.50;37.50;;;;;;685206;28;1374;-86
2022/02/09 02:09:19;;;;;;;;;;;21.50;37.50;;;;;;686082;28;847;-85
2022/02/09 02:09:40;;;;;;;;;;;21.50;37.60;;;;;;686047;28;975;-90
2022/02/09 02:10:06;;;;;;;;;;;21.50;37.70;;;;;;686057;28;903;-84
2022/02/09 02:10:52;;;;;;;;;;;21.50;37.60;;;;;;683190;29;859;-84
2022/02/09 02:11:23;;;;;;;;;;;21.50;37.50;;;;;;683365;29;1337;-87
2022/02/09 02:11:52;;;;;;;;;;;21.50;37.50;;;;;;680824;29;1319;-87
2022/02/09 02:12:18;;;;;;;;;;;21.50;37.60;;;;;;680995;29;1554;-86
2022/02/09 02:12:48;;;;;;;;;;;21.50;37.60;;;;;;683246;29;1320;-89
2022/02/09 02:14:48;;;;;;;;;;;21.50;37.70;;;;;;685871;28;890;-82
2022/02/09 02:15:38;;;;;;;;;;;21.60;37.60;;;;;;686064;28;890;-86
2022/02/09 02:16:43;;;;;;;;;;;21.50;37.60;;;;;;685847;28;677;-84
2022/02/09 02:17:18;;;;;;;;;;;21.50;37.50;;;;;;685886;28;879;-83
2022/02/09 02:17:46;;;;;;;;;;;21.50;37.50;;;;;;685923;28;863;-83
2022/02/09 02:18:06;;;;;;;;;;;21.50;37.60;;;;;;685957;28;902;-80
2022/02/09 02:18:28;;;;;;;;;;;21.50;37.60;;;;;;685959;28;851;-87
2022/02/09 02:18:55;;;;;;;;;;;21.50;37.70;;;;;;685803;28;855;-85
2022/02/09 02:20:11;;;;;;;;;;;21.20;37.50;;;;;;683346;29;653;-87
2022/02/09 02:21:04;;;;;;;;;;;21.50;37.50;;;;;;683170;29;1025;-87
2022/02/09 02:22:48;;;;;;;;;;;21.50;37.60;;;;;;686130;28;1487;-88
2022/02/09 02:23:25;;;;;;;;;;;21.50;37.80;;;;;;685481;28;1149;-85
2022/02/09 02:24:24;;;;;;;;;;;21.50;37.80;;;;;;685961;28;792;-87
2022/02/09 02:31:49;;;;;;;;;;;21.70;37.70;;;;;;685898;28;838;-85
2022/02/09 02:33:49;;;;;;;;;;;21.70;38.90;;;;;;686080;28;878;-84
2022/02/09 02:38:16;;;;;;;;;;;21.80;37.60;;;;;;685930;28;669;-87
2022/02/09 02:39:59;;;;;;;;;;;21.80;37.60;;;;;;685743;28;1906;-85
2022/02/09 02:41:16;;;;;;;;;;;21.80;37.60;;;;;;685935;28;1457;-88
2022/02/09 02:42:02;;;;;;;;;;;21.80;37.60;;;;;;685865;28;944;-84
2022/02/09 02:47:16;;;;;;;;;;;21.80;37.50;;;;;;685764;28;1057;-85
2022/02/09 02:56:57;;;;;;;;;;;21.80;37.40;;;;;;685944;28;665;-88
2022/02/09 03:13:20;;;;;;;;;;;21.60;37.80;;;;;;670199;29;951;-89
2022/02/09 03:13:52;;;;;;;;;;;21.60;37.80;;;;;;670263;29;929;-83
2022/02/09 03:14:29;;;;;;;;;;;21.50;38.10;;;;;;670231;29;879;-90
2022/02/09 03:14:58;;;;;;;;;;;21.60;37.80;;;;;;670193;29;828;-88
2022/02/09 03:15:50;;;;;;;;;;;21.60;38.00;;;;;;670167;29;985;-87
2022/02/09 03:16:14;;;;;;;;;;;21.50;38.00;;;;;;670287;29;1315;-89
2022/02/09 03:16:40;;;;;;;;;;;21.60;37.90;;;;;;670215;29;906;-88
2022/02/09 03:17:05;;;;;;;;;;;21.50;38.00;;;;;;670017;29;1085;-89
2022/02/09 03:17:33;;;;;;;;;;;21.60;38.00;;;;;;670170;29;1117;-87
2022/02/09 03:20:16;;;;;;;;;;;21.50;37.80;;;;;;670201;29;693;-87
2022/02/09 03:21:06;;;;;;;;;;;21.50;37.90;;;;;;670195;29;886;-90
2022/02/09 03:22:13;;;;;;;;;;;21.50;37.80;;;;;;670099;29;725;-89
2022/02/09 03:23:17;;;;;;;;;;;21.50;39.00;;;;;;669963;29;1646;-88
2022/02/09 03:24:02;;;;;;;;;;;21.50;37.90;;;;;;670084;29;973;-88
2022/02/09 03:24:43;;;;;;;;;;;21.50;37.90;;;;;;670152;29;915;-88
2022/02/09 03:26:22;;;;;;;;;;;21.50;38.00;;;;;;670163;29;1478;-89
2022/02/09 03:26:43;;;;;;;;;;;21.50;37.90;;;;;;668843;29;955;-86
2022/02/09 03:27:25;;;;;;;;;;;21.50;37.90;;;;;;670125;29;1103;-86
2022/02/09 03:43:25;;;;;;;;;;;21.40;38.10;;;;;;685650;28;960;-87
2022/02/09 03:44:05;;;;;;;;;;;21.40;38.10;;;;;;685639;28;1148;-82
2022/02/09 03:46:31;;;;;;;;;;;21.40;38.20;;;;;;685788;28;594;-86
2022/02/09 03:47:46;;;;;;;;;;;21.40;38.10;;;;;;685694;28;1366;-82
2022/02/09 03:48:58;;;;;;;;;;;21.40;38.30;;;;;;685780;28;657;-83
2022/02/09 03:53:35;;;;;;;;;;;21.40;38.20;;;;;;694006;28;783;-84
2022/02/09 03:54:54;;;;;;;;;;;21.40;38.20;;;;;;694071;28;841;-81
2022/02/09 03:56:10;;;;;;;;;;;21.40;38.20;;;;;;694227;28;888;-85
2022/02/09 03:56:29;;;;;;;;;;;21.40;38.10;;;;;;693760;28;1378;-79
2022/02/09 03:57:02;;;;;;;;;;;21.40;38.20;;;;;;694181;28;807;-88
2022/02/09 03:57:29;;;;;;;;;;;21.40;38.20;;;;;;693974;28;846;-81
2022/02/09 03:57:50;;;;;;;;;;;21.40;38.20;;;;;;694031;28;838;-85
2022/02/09 03:58:11;;;;;;;;;;;21.40;38.20;;;;;;694119;28;854;-82
2022/02/09 03:58:31;;;;;;;;;;;21.40;38.30;;;;;;691075;28;1126;-85
2022/02/09 03:58:52;;;;;;;;;;;21.40;38.20;;;;;;691165;28;1426;-86
2022/02/09 03:59:14;;;;;;;;;;;21.40;38.20;;;;;;688348;28;1960;-86
2022/02/09 03:59:34;;;;;;;;;;;21.40;38.30;;;;;;688411;28;827;-86
2022/02/09 03:59:59;;;;;;;;;;;21.40;38.50;;;;;;688428;28;791;-85
2022/02/09 04:00:26;;;;;;;;;;;21.40;38.20;;;;;;689682;28;779;-79
2022/02/09 04:00:47;;;;;;;;;;;21.40;38.30;;;;;;688964;28;1342;-84
2022/02/09 04:01:08;;;;;;;;;;;21.40;38.20;;;;;;693068;28;1132;-82
2022/02/09 04:01:34;;;;;;;;;;;21.40;38.30;;;;;;693770;28;1329;-84
2022/02/09 04:01:55;;;;;;;;;;;21.40;38.50;;;;;;691129;28;933;-86
2022/02/09 04:02:16;;;;;;;;;;;21.40;38.30;;;;;;688492;28;1401;-87
2022/02/09 04:02:36;;;;;;;;;;;21.40;38.40;;;;;;689755;28;799;-83
2022/02/09 04:03:00;;;;;;;;;;;21.40;38.50;;;;;;691261;28;941;-84
2022/02/09 04:03:22;;;;;;;;;;;21.40;38.30;;;;;;691133;28;885;-89
2022/02/09 04:03:44;;;;;;;;;;;21.40;38.30;;;;;;692263;28;810;-87
2022/02/09 04:04:04;;;;;;;;;;;21.40;38.30;;;;;;695043;28;806;-87
2022/02/09 04:04:25;;;;;;;;;;;21.40;38.20;;;;;;696680;28;779;-86
2022/02/09 04:04:51;;;;;;;;;;;21.40;38.20;;;;;;693871;28;831;-85
2022/02/09 04:05:13;;;;;;;;;;;21.40;38.30;;;;;;693889;28;945;-84
2022/02/09 04:05:34;;;;;;;;;;;21.40;39.00;;;;;;693932;28;876;-89
2022/02/09 04:05:54;;;;;;;;;;;21.40;38.30;;;;;;691111;28;1425;-86
2022/02/09 04:06:15;;;;;;;;;;;21.40;38.20;;;;;;691298;28;870;-86
2022/02/09 04:06:37;;;;;;;;;;;21.40;38.30;;;;;;692571;28;862;-88
2022/02/09 04:06:58;;;;;;;;;;;21.40;38.40;;;;;;693984;28;882;-87
2022/02/09 04:07:19;;;;;;;;;;;21.40;38.30;;;;;;693840;28;842;-88
2022/02/09 04:07:39;;;;;;;;;;;21.40;38.30;;;;;;694612;28;794;-87
2022/02/09 04:08:01;;;;;;;;;;;21.40;38.20;;;;;;696788;28;846;-85
2022/02/09 04:08:28;;;;;;;;;;;21.40;38.20;;;;;;696759;28;869;-83
2022/02/09 04:08:57;;;;;;;;;;;21.40;38.10;;;;;;696798;28;834;-84
2022/02/09 04:09:20;;;;;;;;;;;21.30;38.10;;;;;;696830;28;865;-84
2022/02/09 04:09:46;;;;;;;;;;;21.30;38.20;;;;;;696867;28;834;-84
2022/02/09 04:10:10;;;;;;;;;;;21.30;38.20;;;;;;693802;28;1239;-83
2022/02/09 04:10:40;;;;;;;;;;;21.30;38.20;;;;;;693753;28;1285;-84
2022/02/09 04:11:12;;;;;;;;;;;21.30;38.20;;;;;;693688;28;1472;-86
2022/02/09 04:11:57;;;;;;;;;;;21.30;38.30;;;;;;693691;28;814;-83
2022/02/09 04:12:43;;;;;;;;;;;21.30;38.40;;;;;;693771;28;882;-87
2022/02/09 04:13:38;;;;;;;;;;;21.40;38.40;;;;;;693756;28;1401;-84
2022/02/09 04:14:08;;;;;;;;;;;21.30;38.40;;;;;;693681;28;1102;-84
2022/02/09 04:14:38;;;;;;;;;;;21.30;38.70;;;;;;693655;28;1407;-85
2022/02/09 04:15:20;;;;;;;;;;;21.40;39.00;;;;;;693880;28;893;-84
2022/02/09 04:16:06;;;;;;;;;;;21.30;38.70;;;;;;693663;28;1283;-87
2022/02/09 04:16:42;;;;;;;;;;;21.40;38.60;;;;;;693811;28;1363;-78
2022/02/09 04:17:36;;;;;;;;;;;21.30;38.70;;;;;;691066;28;1507;-85
2022/02/09 04:19:26;;;;;;;;;;;21.30;38.60;;;;;;694736;28;645;-90
2022/02/09 04:37:05;;;;;;;;;;;21.60;41.60;;;;;;685621;28;826;-87
2022/02/09 04:38:08;;;;;;;;;;;21.60;41.40;;;;;;682970;29;707;-86
2022/02/09 04:40:03;;;;;;;;;;;21.60;41.30;;;;;;682504;29;1260;-80
2022/02/09 04:42:41;;;;;;;;;;;21.60;41.10;;;;;;682862;29;1038;-85
2022/02/09 04:43:44;;;;;;;;;;;21.60;40.90;;;;;;682966;29;882;-83
2022/02/09 04:44:40;;;;;;;;;;;21.60;40.80;;;;;;682958;29;795;-83
2022/02/09 04:45:56;;;;;;;;;;;21.60;40.70;;;;;;680362;29;1096;-85
2022/02/09 04:47:19;;;;;;;;;;;21.60;40.60;;;;;;682026;29;590;-87
2022/02/09 04:50:59;;;;;;;;;;;21.70;40.50;;;;;;683058;29;771;-85
2022/02/09 04:51:29;;;;;;;;;;;21.60;40.40;;;;;;680554;29;906;-81
2022/02/09 04:52:34;;;;;;;;;;;21.70;40.80;;;;;;680379;29;838;-81
2022/02/09 04:54:30;;;;;;;;;;;21.70;40.30;;;;;;680575;29;721;-79
2022/02/09 04:55:33;;;;;;;;;;;21.70;40.30;;;;;;684015;29;893;-85
2022/02/09 04:57:27;;;;;;;;;;;21.60;40.20;;;;;;683285;29;724;-82
2022/02/09 04:57:57;;;;;;;;;;;21.60;40.10;;;;;;683405;29;957;-84
2022/02/09 04:58:32;;;;;;;;;;;21.60;40.40;;;;;;683335;29;913;-82
2022/02/09 05:01:04;;;;;;;;;;;21.60;40.10;;;;;;682950;29;665;-82
2022/02/09 05:04:10;;;;;;;;;;;21.50;40.10;;;;;;682882;29;598;-84
2022/02/09 05:04:34;;;;;;;;;;;21.50;40.10;;;;;;680853;29;879;-80
2022/02/09 05:22:32;;;;;;;;;;;21.30;39.60;;;;;;685614;28;930;-85
2022/02/09 05:23:35;;;;;;;;;;;21.40;39.70;;;;;;685457;28;935;-87
2022/02/09 05:23:47;;;;;;;;;;;21.40;39.70;;;;;;685410;28;803;-86
2022/02/09 05:24:17;;;;;;;;;;;21.30;39.70;;;;;;686220;28;870;-86
2022/02/09 05:25:15;;;;;;;;;;;21.30;39.80;;;;;;685987;28;1036;-87
2022/02/09 05:26:37;;;;;;;;;;;21.30;39.70;;;;;;680688;29;1344;-85
2022/02/09 05:27:22;;;;;;;;;;;21.40;40.00;;;;;;680762;29;799;-86
2022/02/09 05:28:21;;;;;;;;;;;21.30;39.90;;;;;;680923;29;724;-87
2022/02/09 05:28:42;;;;;;;;;;;21.30;40.00;;;;;;680785;29;890;-86
2022/02/09 05:29:03;;;;;;;;;;;21.30;40.00;;;;;;680785;29;934;-85
2022/02/09 05:29:26;;;;;;;;;;;21.30;40.00;;;;;;678090;29;1345;-86
2022/02/09 05:29:46;;;;;;;;;;;21.30;39.90;;;;;;678210;29;851;-81
2022/02/09 05:30:09;;;;;;;;;;;21.30;40.00;;;;;;678214;29;907;-85
2022/02/09 05:30:29;;;;;;;;;;;21.30;40.00;;;;;;678248;29;887;-85
2022/02/09 05:30:52;;;;;;;;;;;21.30;39.80;;;;;;678166;29;891;-85
2022/02/09 05:31:12;;;;;;;;;;;21.40;39.90;;;;;;679223;29;883;-85
2022/02/09 05:31:33;;;;;;;;;;;21.30;39.80;;;;;;680731;29;989;-85
2022/02/09 05:31:54;;;;;;;;;;;21.30;39.80;;;;;;680678;29;800;-84
2022/02/09 05:32:14;;;;;;;;;;;21.40;39.90;;;;;;678130;29;1575;-87
2022/02/09 05:32:35;;;;;;;;;;;21.40;39.90;;;;;;678086;29;1370;-85
2022/02/09 05:32:55;;;;;;;;;;;21.30;39.90;;;;;;678113;29;796;-84
2022/02/09 05:33:16;;;;;;;;;;;21.30;40.00;;;;;;678318;29;827;-85
2022/02/09 05:33:37;;;;;;;;;;;21.30;39.80;;;;;;678072;29;768;-83
2022/02/09 05:33:58;;;;;;;;;;;21.40;40.00;;;;;;675697;29;1084;-84
2022/02/09 05:34:18;;;;;;;;;;;21.40;39.90;;;;;;678141;29;816;-86
2022/02/09 05:34:39;;;;;;;;;;;21.40;39.90;;;;;;678246;29;902;-86
2022/02/09 05:34:59;;;;;;;;;;;21.30;39.80;;;;;;677985;29;1407;-86
2022/02/09 05:35:21;;;;;;;;;;;21.40;39.80;;;;;;678147;29;1040;-85
2022/02/09 05:35:43;;;;;;;;;;;21.40;39.90;;;;;;678751;29;878;-86
2022/02/09 05:36:04;;;;;;;;;;;21.30;39.90;;;;;;680440;29;1270;-85
2022/02/09 05:36:24;;;;;;;;;;;21.40;39.90;;;;;;680694;29;1191;-86
2022/02/09 05:36:45;;;;;;;;;;;21.40;40.20;;;;;;680857;29;787;-86
2022/02/09 05:37:05;;;;;;;;;;;21.40;39.90;;;;;;680851;29;768;-87
2022/02/09 05:37:26;;;;;;;;;;;21.40;40.00;;;;;;680658;29;1257;-86
2022/02/09 05:37:50;;;;;;;;;;;21.30;40.10;;;;;;677967;29;1238;-80
2022/02/09 05:38:11;;;;;;;;;;;21.40;39.90;;;;;;678009;29;1119;-83
2022/02/09 05:38:32;;;;;;;;;;;21.40;39.90;;;;;;678072;29;875;-83
2022/02/09 05:38:52;;;;;;;;;;;21.40;39.90;;;;;;678113;29;824;-84
2022/02/09 05:39:13;;;;;;;;;;;21.40;40.30;;;;;;678040;29;1911;-84
2022/02/09 05:39:34;;;;;;;;;;;21.40;40.40;;;;;;678880;29;1354;-85
2022/02/09 05:39:54;;;;;;;;;;;21.40;40.40;;;;;;680280;29;827;-86
2022/02/09 05:40:15;;;;;;;;;;;21.40;40.00;;;;;;678165;29;796;-87
2022/02/09 05:40:36;;;;;;;;;;;21.40;40.30;;;;;;680686;29;1100;-88
2022/02/09 05:40:56;;;;;;;;;;;21.40;40.00;;;;;;680152;29;908;-78
2022/02/09 05:41:17;;;;;;;;;;;21.40;40.20;;;;;;680841;29;890;-81
2022/02/09 05:41:43;;;;;;;;;;;21.40;40.30;;;;;;680885;29;839;-83
2022/02/09 05:42:08;;;;;;;;;;;21.40;40.20;;;;;;680659;29;815;-85
2022/02/09 05:42:28;;;;;;;;;;;21.40;40.20;;;;;;680588;29;838;-84
2022/02/09 05:42:49;;;;;;;;;;;21.40;40.20;;;;;;680708;29;866;-83
2022/02/09 05:43:11;;;;;;;;;;;21.40;40.10;;;;;;680784;29;812;-82
2022/02/09 05:43:32;;;;;;;;;;;21.40;40.20;;;;;;678014;29;793;-84
2022/02/09 05:43:52;;;;;;;;;;;21.40;40.20;;;;;;678032;29;938;-81
2022/02/09 05:44:14;;;;;;;;;;;21.40;40.20;;;;;;678177;29;1692;-86
2022/02/09 05:44:35;;;;;;;;;;;21.40;40.30;;;;;;682221;29;1083;-82
2022/02/09 05:44:55;;;;;;;;;;;21.40;40.30;;;;;;683333;29;942;-84
2022/02/09 05:45:17;;;;;;;;;;;21.40;40.30;;;;;;683947;28;803;-80
2022/02/09 05:49:48;;;;;;;;;;;21.40;40.90;;;;;;688680;28;684;-84
2022/02/09 05:51:47;;;;;;;;;;;21.40;41.70;;;;;;680651;29;626;-83
2022/02/09 05:52:29;;;;;;;;;;;21.40;40.50;;;;;;677978;29;1531;-85
2022/02/09 05:53:18;;;;;;;;;;;21.50;40.70;;;;;;678129;29;930;-85
2022/02/09 05:56:06;;;;;;;;;;;21.50;40.70;;;;;;680610;29;1363;-83
2022/02/09 05:56:40;;;;;;;;;;;21.50;41.10;;;;;;680647;29;935;-79
2022/02/09 05:58:05;;;;;;;;;;;21.50;41.60;;;;;;672823;29;740;-84
2022/02/09 05:58:50;;;;;;;;;;;21.50;41.40;;;;;;672991;29;954;-82
2022/02/09 05:59:38;;;;;;;;;;;21.50;41.30;;;;;;672998;29;670;-83
2022/02/09 05:59:59;;;;;;;;;;;21.50;41.20;;;;;;672860;29;1025;-85
2022/02/09 06:00:19;;;;;;;;;;;21.50;41.00;;;;;;672861;29;797;-83
2022/02/09 06:00:47;;;;;;;;;;;21.50;40.90;;;;;;672904;29;852;-85
2022/02/09 06:01:07;;;;;;;;;;;21.50;41.00;;;;;;672965;29;912;-83
2022/02/09 06:01:28;;;;;;;;;;;21.50;41.10;;;;;;672890;29;879;-84
2022/02/09 06:01:48;;;;;;;;;;;21.50;42.10;;;;;;672683;29;1290;-84
2022/02/09 06:02:10;;;;;;;;;;;21.60;40.80;;;;;;672811;29;1153;-85
2022/02/09 06:02:30;;;;;;;;;;;21.50;40.70;;;;;;672800;29;887;-84
2022/02/09 06:02:51;;;;;;;;;;;21.50;40.70;;;;;;672843;29;892;-85
2022/02/09 06:03:11;;;;;;;;;;;21.50;40.70;;;;;;672451;29;881;-81
2022/02/09 06:03:32;;;;;;;;;;;21.50;40.60;;;;;;672671;29;1454;-84
2022/02/09 06:03:52;;;;;;;;;;;21.50;40.70;;;;;;672763;29;1133;-84
2022/02/09 06:04:13;;;;;;;;;;;21.60;40.80;;;;;;672962;29;781;-84
2022/02/09 06:04:38;;;;;;;;;;;21.50;40.60;;;;;;672922;29;1015;-84
2022/02/09 06:04:58;;;;;;;;;;;21.60;40.80;;;;;;673583;29;938;-84
2022/02/09 06:05:19;;;;;;;;;;;21.60;40.70;;;;;;675441;29;872;-85
2022/02/09 06:05:39;;;;;;;;;;;21.60;40.60;;;;;;675420;29;816;-84
2022/02/09 06:06:00;;;;;;;;;;;21.60;40.60;;;;;;675314;29;1097;-84
2022/02/09 06:06:20;;;;;;;;;;;21.60;40.60;;;;;;675378;29;816;-84
2022/02/09 06:06:42;;;;;;;;;;;21.50;40.50;;;;;;675526;29;923;-85
2022/02/09 06:07:03;;;;;;;;;;;21.50;40.50;;;;;;675384;29;840;-83
2022/02/09 06:07:24;;;;;;;;;;;21.60;40.50;;;;;;675278;29;1433;-85
2022/02/09 06:07:44;;;;;;;;;;;21.60;40.50;;;;;;675457;29;854;-85
2022/02/09 06:08:05;;;;;;;;;;;20.50;40.00;;;;;;675421;29;856;-84
2022/02/09 06:08:25;;;;;;;;;;;21.60;40.50;;;;;;675318;29;958;-84
2022/02/09 06:08:46;;;;;;;;;;;21.60;40.40;;;;;;675475;29;983;-84
2022/02/09 06:09:08;;;;;;;;;;;21.60;40.40;;;;;;675398;29;793;-81
2022/02/09 06:09:29;;;;;;;;;;;21.60;40.40;;;;;;672733;29;1640;-84
2022/02/09 06:09:50;;;;;;;;;;;21.60;40.40;;;;;;672761;29;920;-84
2022/02/09 06:10:19;;;;;;;;;;;21.60;40.40;;;;;;672883;29;892;-85
2022/02/09 06:10:42;;;;;;;;;;;21.60;40.50;;;;;;672940;29;801;-82
2022/02/09 06:12:03;;;;;;;;;;;21.60;40.30;;;;;;670200;29;1149;-85
2022/02/09 06:12:45;;;;;;;;;;;21.60;40.30;;;;;;670194;29;895;-83
2022/02/09 06:13:42;;;;;;;;;;;21.60;40.30;;;;;;670120;29;837;-84
2022/02/09 06:15:44;;;;;;;;;;;21.60;40.30;;;;;;672815;29;1234;-81
2022/02/09 06:19:40;;;;;;;;;;;21.60;40.30;;;;;;672619;29;1285;-81
2022/02/09 06:19:53;;;;;;;;;;;21.60;40.30;;;;;;667593;29;1209;-83
2022/02/09 06:20:14;;;;;;;;;;;21.60;40.20;;;;;;667583;29;1362;-80
2022/02/09 06:20:35;;;;;;;;;;;21.60;40.20;;;;;;667650;29;1039;-82
2022/02/09 06:20:58;;;;;;;;;;;21.60;40.30;;;;;;667620;29;981;-79
2022/02/09 06:21:20;;;;;;;;;;;21.60;40.20;;;;;;665082;29;1243;-81
2022/02/09 06:21:41;;;;;;;;;;;21.60;40.20;;;;;;665246;29;988;-82
2022/02/09 06:22:02;;;;;;;;;;;21.60;40.20;;;;;;665164;29;833;-83
2022/02/09 06:22:23;;;;;;;;;;;21.60;40.30;;;;;;665056;29;1325;-80
2022/02/09 06:22:44;;;;;;;;;;;21.60;40.40;;;;;;665202;29;765;-83
2022/02/09 06:23:05;;;;;;;;;;;21.60;40.30;;;;;;665681;29;888;-84
2022/02/09 06:23:26;;;;;;;;;;;21.60;40.30;;;;;;667656;29;825;-82
2022/02/09 06:23:47;;;;;;;;;;;21.60;40.10;;;;;;667741;29;1169;-79
2022/02/09 06:24:07;;;;;;;;;;;21.30;40.20;;;;;;667720;29;1364;-85
2022/02/09 06:24:28;;;;;;;;;;;21.70;40.40;;;;;;667651;29;809;-80
2022/02/09 06:24:49;;;;;;;;;;;21.60;40.40;;;;;;667675;29;955;-84
2022/02/09 06:25:10;;;;;;;;;;;21.70;40.50;;;;;;667776;29;860;-84
2022/02/09 06:25:30;;;;;;;;;;;21.70;40.30;;;;;;667700;29;840;-83
2022/02/09 06:25:51;;;;;;;;;;;21.70;40.30;;;;;;667914;29;1297;-84
2022/02/09 06:26:11;;;;;;;;;;;21.60;40.20;;;;;;669772;29;1242;-85
2022/02/09 06:26:32;;;;;;;;;;;21.60;40.20;;;;;;667980;29;1202;-86
2022/02/09 06:26:52;;;;;;;;;;;21.70;40.40;;;;;;670205;29;943;-84
2022/02/09 06:27:13;;;;;;;;;;;21.70;40.50;;;;;;670209;29;935;-84
2022/02/09 06:27:34;;;;;;;;;;;21.70;40.50;;;;;;670341;29;983;-82
2022/02/09 06:27:55;;;;;;;;;;;21.70;40.80;;;;;;672755;29;805;-85
2022/02/09 06:28:15;;;;;;;;;;;21.70;42.40;;;;;;672718;29;1272;-83
2022/02/09 06:28:36;;;;;;;;;;;21.70;42.60;;;;;;672320;29;1244;-85
2022/02/09 06:28:56;;;;;;;;;;;21.60;41.70;;;;;;669895;29;1387;-83
2022/02/09 06:29:17;;;;;;;;;;;21.60;41.90;;;;;;669945;29;1371;-82
2022/02/09 06:29:40;;;;;;;;;;;21.80;41.90;;;;;;670224;29;831;-85
2022/02/09 06:30:00;;;;;;;;;;;21.80;41.90;;;;;;670163;29;880;-84
2022/02/09 06:30:21;;;;;;;;;;;21.70;41.70;;;;;;669633;29;1321;-85
2022/02/09 06:30:42;;;;;;;;;;;21.80;41.70;;;;;;670292;29;1274;-85
2022/02/09 06:31:02;;;;;;;;;;;21.60;41.30;;;;;;672462;29;1387;-84
2022/02/09 06:31:23;;;;;;;;;;;21.80;41.20;;;;;;672290;29;1315;-84
2022/02/09 06:31:44;;;;;;;;;;;21.80;41.10;;;;;;672545;29;1343;-85
2022/02/09 06:32:09;;;;;;;;;;;21.80;42.20;;;;;;672605;29;1429;-86
2022/02/09 06:32:29;;;;;;;;;;;21.70;40.90;;;;;;670410;29;1314;-83
2022/02/09 06:32:50;;;;;;;;;;;21.80;41.00;;;;;;672662;29;1149;-83
2022/02/09 06:33:11;;;;;;;;;;;21.80;40.80;;;;;;671790;29;1315;-83
2022/02/09 06:33:31;;;;;;;;;;;21.80;40.80;;;;;;670198;29;1365;-82
2022/02/09 06:33:52;;;;;;;;;;;21.80;40.70;;;;;;669824;29;1183;-86
2022/02/09 06:34:14;;;;;;;;;;;21.80;40.70;;;;;;670256;29;1212;-85
2022/02/09 06:34:38;;;;;;;;;;;21.80;40.60;;;;;;672338;29;1270;-83
2022/02/09 06:35:00;;;;;;;;;;;21.80;40.60;;;;;;672345;29;1469;-85
2022/02/09 06:35:20;;;;;;;;;;;21.80;40.60;;;;;;672721;29;1298;-85
2022/02/09 06:35:41;;;;;;;;;;;21.80;40.50;;;;;;672505;29;1233;-84
2022/02/09 06:36:04;;;;;;;;;;;21.80;40.50;;;;;;672418;29;1457;-81
2022/02/09 06:36:26;;;;;;;;;;;21.80;40.50;;;;;;672656;29;1398;-86
2022/02/09 06:36:57;;;;;;;;;;;21.80;40.60;;;;;;672321;29;1160;-79
2022/02/09 06:37:25;;;;;;;;;;;21.80;40.50;;;;;;672543;29;1438;-86
2022/02/09 06:37:47;;;;;;;;;;;21.90;40.50;;;;;;670245;29;1283;-86
2022/02/09 06:38:08;;;;;;;;;;;21.50;40.30;;;;;;672042;29;1430;-85
2022/02/09 06:38:29;;;;;;;;;;;21.90;40.50;;;;;;672723;29;1402;-85
2022/02/09 06:38:50;;;;;;;;;;;21.90;40.50;;;;;;672638;29;1417;-85
2022/02/09 06:39:12;;;;;;;;;;;21.90;40.40;;;;;;672655;29;1915;-87
2022/02/09 06:39:33;;;;;;;;;;;21.90;40.40;;;;;;672577;29;1326;-86
2022/02/09 06:39:59;;;;;;;;;;;21.90;40.40;;;;;;672645;29;1394;-86
2022/02/09 06:40:20;;;;;;;;;;;21.90;40.40;;;;;;671831;29;1525;-84